Time;durP1;ratioP1;P1;durP2;ratioP2;P2;SDS_P1;SDS_P2;PMS_P1;PMS_P2;Temp;Humidity;BMP_temperature;BMP_pressure;BME280_temperature;BME280_humidity;BME280_pressure;Samples;Min_cycle;Max_cycle;Signal;HPM_P1;HPM_P2
2022/10/25 00:01:26;;;;;;;0.55;0.30;;;21.20;70.40;;;;;;4956214;28;20055;-35
2022/10/25 00:03:51;;;;;;;0.13;0.13;;;21.20;70.50;;;;;;4960078;28;20034;-37
2022/10/25 00:06:17;;;;;;;0.40;0.20;;;21.20;70.60;;;;;;4958611;28;20106;-37
2022/10/25 00:08:42;;;;;;;0.38;0.10;;;21.10;70.60;;;;;;4955645;28;20034;-35
2022/10/25 00:11:11;;;;;;;0.63;0.30;;;21.10;70.70;;;;;;4953907;28;20046;-38
2022/10/25 00:13:37;;;;;;;0.20;0.20;;;21.10;70.70;;;;;;4986488;28;20043;-36
2022/10/25 00:16:03;;;;;;;0.47;0.13;;;21.10;70.70;;;;;;4957111;28;20050;-36
2022/10/25 00:18:28;;;;;;;0.22;0.10;;;21.10;70.60;;;;;;4956610;28;20050;-33
2022/10/25 00:20:54;;;;;;;0.28;0.17;;;21.10;70.70;;;;;;4952408;28;20050;-34
2022/10/25 00:23:20;;;;;;;0.20;0.10;;;21.10;70.80;;;;;;4951386;28;20047;-38
2022/10/25 00:25:45;;;;;;;0.68;0.38;;;21.10;70.80;;;;;;4957785;28;20533;-38
2022/10/25 00:28:11;;;;;;;0.85;0.20;;;21.10;70.80;;;;;;4955880;28;20047;-37
2022/10/25 00:30:36;;;;;;;0.25;0.20;;;21.10;70.80;;;;;;4955326;28;20473;-40
2022/10/25 00:33:02;;;;;;;0.40;0.30;;;21.10;70.60;;;;;;4955109;28;20557;-33
2022/10/25 00:35:27;;;;;;;1.52;0.43;;;21.10;70.70;;;;;;4958719;28;20109;-37
2022/10/25 00:37:53;;;;;;;0.15;0.10;;;21.10;70.80;;;;;;4958805;28;20027;-32
2022/10/25 00:40:19;;;;;;;0.20;0.15;;;21.10;70.80;;;;;;4952580;28;20038;-38
2022/10/25 00:42:44;;;;;;;0.38;0.17;;;21.10;71.00;;;;;;4955138;28;20110;-35
2022/10/25 00:45:21;;;;;;;0.63;0.63;;;21.10;70.80;;;;;;4953754;28;20035;-38
2022/10/25 00:48:05;;;;;;;0.40;0.30;;;21.10;71.00;;;;;;4956422;28;20050;-38
2022/10/25 00:50:33;;;;;;;;;;;21.10;71.30;;;;;;4958478;28;20035;-37
2022/10/25 00:53:08;;;;;;;0.30;0.30;;;21.10;71.20;;;;;;4956964;28;20398;-37
2022/10/25 00:55:33;;;;;;;0.50;0.30;;;21.10;71.50;;;;;;4955032;28;20070;-37
2022/10/25 00:58:03;;;;;;;0.28;0.10;;;21.10;71.30;;;;;;4953327;28;20470;-38
2022/10/25 01:00:28;;;;;;;0.45;0.45;;;21.10;71.40;;;;;;4971221;28;20043;-35
2022/10/25 01:02:54;;;;;;;0.15;0.15;;;21.10;71.90;;;;;;4957546;28;20054;-33
2022/10/25 01:05:19;;;;;;;0.30;0.30;;;21.10;71.30;;;;;;4952534;28;20043;-36
2022/10/25 01:07:45;;;;;;;0.55;0.47;;;21.00;72.00;;;;;;4955566;28;20581;-38
2022/10/25 01:10:11;;;;;;;0.50;0.30;;;21.00;71.10;;;;;;4955109;28;20066;-41
2022/10/25 01:12:36;;;;;;;0.45;0.20;;;21.00;71.10;;;;;;4955674;28;20126;-33
2022/10/25 01:15:02;;;;;;;1.48;0.17;;;21.10;71.20;;;;;;4957847;28;20042;-32
2022/10/25 01:17:36;;;;;;;0.20;0.20;;;21.00;71.90;;;;;;4955787;28;20039;-39
2022/10/25 01:20:31;;;;;;;0.35;0.30;;;21.00;71.20;;;;;;4955443;28;20047;-38
2022/10/25 01:23:24;;;;;;;0.38;0.20;;;21.00;71.30;;;;;;4951260;28;20050;-37
2022/10/25 01:26:47;;;;;;;0.45;0.13;;;21.00;71.20;;;;;;4949703;28;20059;-37
2022/10/25 01:29:44;;;;;;;0.82;0.30;;;21.00;71.30;;;;;;4952886;28;20035;-43
2022/10/25 01:32:10;;;;;;;0.65;0.20;;;21.00;71.10;;;;;;4901349;29;20048;-38
2022/10/25 01:34:58;;;;;;;0.17;0.10;;;21.00;71.10;;;;;;4902147;29;20061;-38
2022/10/25 01:37:53;;;;;;;0.17;0.17;;;21.00;71.20;;;;;;4892231;29;20609;-34
2022/10/25 01:40:24;;;;;;;0.30;0.20;;;21.00;71.10;;;;;;4878920;29;20414;-32
2022/10/25 01:42:56;;;;;;;0.40;0.10;;;21.00;71.10;;;;;;4876450;29;20051;-32
2022/10/25 01:45:41;;;;;;;0.10;0.10;;;21.00;71.30;;;;;;4881689;29;20056;-36
2022/10/25 01:48:13;;;;;;;0.22;0.20;;;21.00;71.10;;;;;;4888484;28;20431;-34
2022/10/25 01:50:39;;;;;;;0.50;0.10;;;21.00;71.00;;;;;;4876257;29;20052;-35
2022/10/25 01:53:05;;;;;;;0.25;0.10;;;21.00;71.20;;;;;;4874536;29;20059;-35
2022/10/25 01:55:34;;;;;;;0.13;0.10;;;21.00;71.10;;;;;;4903407;29;20051;-32
2022/10/25 01:58:21;;;;;;;0.52;0.10;;;21.00;71.10;;;;;;4875540;29;20048;-39
2022/10/25 02:00:53;;;;;;;0.60;0.30;;;21.00;71.20;;;;;;4872054;29;20063;-35
2022/10/25 02:03:48;;;;;;;0.30;0.20;;;21.00;71.10;;;;;;4890245;29;20241;-34
2022/10/25 02:06:19;;;;;;;0.20;0.20;;;21.00;71.20;;;;;;4905233;29;20119;-35
2022/10/25 02:08:57;;;;;;;0.40;0.22;;;21.00;71.00;;;;;;4929737;28;20137;-38
2022/10/25 02:11:26;;;;;;;0.63;0.32;;;21.00;71.20;;;;;;4959340;28;20049;-36
2022/10/25 02:14:29;;;;;;;0.60;0.20;;;21.00;71.00;;;;;;4955036;28;20051;-37
2022/10/25 02:17:09;;;;;;;0.40;0.20;;;21.00;71.00;;;;;;4961106;28;20330;-33
2022/10/25 02:19:46;;;;;;;0.20;0.20;;;21.00;70.90;;;;;;4958876;28;20130;-35
2022/10/25 02:22:11;;;;;;;0.25;0.10;;;21.00;71.10;;;;;;4974065;28;20098;-35
2022/10/25 02:24:37;;;;;;;0.40;0.25;;;21.00;71.10;;;;;;4971752;28;20055;-36
2022/10/25 02:27:04;;;;;;;0.30;0.15;;;21.00;71.00;;;;;;4968622;28;20048;-39
2022/10/25 02:29:30;;;;;;;0.43;0.17;;;21.00;70.90;;;;;;4970748;28;20035;-35
2022/10/25 02:31:55;;;;;;;0.25;0.13;;;21.00;71.00;;;;;;4954607;28;20054;-33
2022/10/25 02:34:21;;;;;;;0.30;0.20;;;21.00;71.00;;;;;;4955804;28;20090;-40
2022/10/25 02:36:50;;;;;;;0.43;0.30;;;21.00;70.90;;;;;;4970467;28;20053;-37
2022/10/25 02:39:16;;;;;;;0.32;0.10;;;20.90;70.80;;;;;;4955773;28;20047;-35
2022/10/25 02:41:42;;;;;;;0.22;0.20;;;21.00;71.00;;;;;;4967762;28;20051;-34
2022/10/25 02:44:08;;;;;;;0.30;0.20;;;21.00;70.90;;;;;;4958366;28;20088;-36
2022/10/25 02:46:33;;;;;;;0.30;0.10;;;20.90;71.80;;;;;;4954819;28;20047;-36
2022/10/25 02:48:59;;;;;;;0.20;0.20;;;21.00;71.10;;;;;;4955303;28;20047;-36
2022/10/25 02:51:24;;;;;;;0.55;0.20;;;21.00;70.90;;;;;;4957020;28;20050;-38
2022/10/25 02:53:50;;;;;;;0.25;0.20;;;20.90;70.70;;;;;;4958421;28;20396;-38
2022/10/25 02:56:20;;;;;;;0.40;0.20;;;21.00;70.80;;;;;;4953491;28;20042;-40
2022/10/25 02:58:46;;;;;;;0.40;0.20;;;20.90;70.70;;;;;;4956471;28;20051;-31
2022/10/25 03:01:12;;;;;;;0.60;0.20;;;21.00;70.80;;;;;;4953408;28;20049;-37
2022/10/25 03:03:37;;;;;;;0.47;0.25;;;21.00;71.00;;;;;;4954643;28;20047;-33
2022/10/25 03:06:03;;;;;;;0.20;0.20;;;21.00;70.90;;;;;;4955226;28;20034;-35
2022/10/25 03:08:29;;;;;;;0.30;0.20;;;21.00;70.70;;;;;;4958942;28;20093;-36
2022/10/25 03:10:54;;;;;;;0.45;0.22;;;21.00;71.00;;;;;;4954763;28;20103;-36
2022/10/25 03:13:20;;;;;;;0.22;0.20;;;20.90;70.90;;;;;;4953011;28;20051;-35
2022/10/25 03:15:45;;;;;;;0.13;0.10;;;21.00;70.50;;;;;;4954631;28;20105;-35
2022/10/25 03:18:11;;;;;;;1.95;0.20;;;21.00;71.00;;;;;;4955375;28;20040;-35
2022/10/25 03:20:37;;;;;;;0.40;0.28;;;21.00;71.00;;;;;;4948544;28;20580;-38
2022/10/25 03:23:03;;;;;;;0.30;0.10;;;21.00;71.10;;;;;;4957337;28;20091;-33
2022/10/25 03:25:28;;;;;;;0.95;0.20;;;21.00;70.80;;;;;;4951272;28;20039;-32
2022/10/25 03:27:54;;;;;;;0.38;0.20;;;21.00;70.60;;;;;;4955265;28;20518;-33
2022/10/25 03:30:20;;;;;;;0.55;0.20;;;21.00;70.90;;;;;;4957536;28;20541;-38
2022/10/25 03:32:45;;;;;;;0.43;0.20;;;20.90;70.60;;;;;;4963530;28;20034;-39
2022/10/25 03:35:11;;;;;;;0.40;0.25;;;20.90;70.80;;;;;;4953846;28;20055;-43
2022/10/25 03:37:36;;;;;;;0.65;0.20;;;20.90;71.00;;;;;;4954256;28;20098;-38
2022/10/25 03:40:02;;;;;;;0.30;0.10;;;20.90;70.80;;;;;;4953611;28;20035;-34
2022/10/25 03:42:28;;;;;;;0.32;0.17;;;20.90;70.90;;;;;;4951737;28;20039;-34
2022/10/25 03:44:53;;;;;;;0.32;0.32;;;20.90;70.90;;;;;;4949601;28;20051;-37
2022/10/25 03:47:19;;;;;;;0.30;0.10;;;20.90;70.90;;;;;;4952850;28;20043;-20
2022/10/25 03:49:44;;;;;;;0.45;0.20;;;20.90;70.70;;;;;;4951894;28;20131;-38
2022/10/25 03:52:10;;;;;;;0.50;0.30;;;20.90;70.80;;;;;;4951360;28;20414;-37
2022/10/25 03:54:35;;;;;;;0.20;0.10;;;20.90;71.70;;;;;;4952810;28;20146;-33
2022/10/25 03:57:01;;;;;;;0.98;0.50;;;20.90;71.00;;;;;;4956043;28;20055;-35
2022/10/25 03:59:27;;;;;;;0.55;0.35;;;20.90;70.80;;;;;;4953290;28;20078;-34
2022/10/25 04:01:52;;;;;;;0.20;0.20;;;20.90;71.00;;;;;;4961177;28;20070;-35
2022/10/25 04:04:18;;;;;;;0.28;0.10;;;20.90;70.80;;;;;;4954755;28;20035;-36
2022/10/25 04:06:43;;;;;;;0.73;0.20;;;20.90;70.70;;;;;;4953949;28;20533;-38
2022/10/25 04:09:09;;;;;;;0.43;0.20;;;20.90;70.70;;;;;;4953746;28;20047;-38
2022/10/25 04:11:35;;;;;;;0.20;0.20;;;20.90;70.80;;;;;;4950251;28;20039;-34
2022/10/25 04:14:00;;;;;;;0.38;0.13;;;20.90;70.70;;;;;;4949223;28;20050;-36
2022/10/25 04:16:26;;;;;;;0.30;0.20;;;20.90;71.50;;;;;;4952874;28;20075;-30
2022/10/25 04:18:52;;;;;;;1.17;0.30;;;20.90;70.80;;;;;;4955461;28;20098;-35
2022/10/25 04:21:18;;;;;;;0.32;0.25;;;20.90;71.00;;;;;;4953199;28;20039;-35
2022/10/25 04:23:44;;;;;;;0.50;0.45;;;20.90;70.60;;;;;;4958192;28;20055;-35
2022/10/25 04:26:10;;;;;;;0.40;0.13;;;20.90;70.70;;;;;;4955942;28;20047;-32
2022/10/25 04:28:35;;;;;;;0.38;0.20;;;20.90;70.80;;;;;;4955625;28;20051;-38
2022/10/25 04:31:01;;;;;;;0.88;0.20;;;20.90;70.70;;;;;;4954461;28;20114;-33
2022/10/25 04:33:27;;;;;;;0.40;0.20;;;20.90;70.70;;;;;;4957931;28;20046;-34
2022/10/25 04:35:55;;;;;;;0.30;0.15;;;20.90;70.90;;;;;;4957873;28;20051;-34
2022/10/25 04:38:20;;;;;;;0.55;0.30;;;20.90;70.60;;;;;;4956502;28;20073;-35
2022/10/25 04:40:55;;;;;;;0.50;0.30;;;20.90;70.50;;;;;;4957224;28;20071;-34
2022/10/25 04:43:21;;;;;;;0.30;0.20;;;20.90;70.50;;;;;;4954978;28;20049;-38
2022/10/25 04:45:47;;;;;;;0.30;0.13;;;20.90;70.50;;;;;;4952907;28;21023;-32
2022/10/25 04:48:12;;;;;;;0.22;0.10;;;20.90;71.30;;;;;;4957811;28;20536;-36
2022/10/25 04:50:38;;;;;;;0.30;0.20;;;20.90;70.70;;;;;;4954352;28;20047;-33
2022/10/25 04:53:04;;;;;;;1.27;0.30;;;20.90;70.70;;;;;;4959110;28;20102;-36
2022/10/25 04:55:30;;;;;;;0.30;0.28;;;20.90;70.60;;;;;;4952755;28;20533;-32
2022/10/25 04:57:56;;;;;;;0.28;0.10;;;20.90;70.40;;;;;;4953086;28;22319;-37
2022/10/25 05:00:22;;;;;;;0.20;0.20;;;20.90;70.30;;;;;;4950868;28;20049;-42
2022/10/25 05:02:50;;;;;;;0.40;0.25;;;20.90;70.60;;;;;;4953940;28;20051;-34
2022/10/25 05:05:16;;;;;;;0.43;0.30;;;20.90;70.50;;;;;;4955440;28;20054;-34
2022/10/25 05:07:42;;;;;;;0.25;0.25;;;20.90;70.60;;;;;;4952697;28;20039;-38
2022/10/25 05:10:07;;;;;;;0.40;0.10;;;20.90;70.70;;;;;;4953600;28;20023;-36
2022/10/25 05:12:33;;;;;;;0.28;0.20;;;20.80;70.70;;;;;;4953344;28;20557;-34
2022/10/25 05:14:59;;;;;;;0.40;0.22;;;20.90;70.60;;;;;;4953033;28;20066;-39
2022/10/25 05:17:24;;;;;;;1.63;0.20;;;20.90;70.60;;;;;;4955561;28;20035;-45
2022/10/25 05:19:50;;;;;;;0.50;0.20;;;20.90;70.70;;;;;;4953927;28;20097;-36
2022/10/25 05:22:15;;;;;;;0.20;0.10;;;20.90;70.50;;;;;;4955264;28;20486;-43
2022/10/25 05:24:41;;;;;;;0.10;0.10;;;20.90;70.60;;;;;;4953753;28;20098;-35
2022/10/25 05:27:06;;;;;;;0.20;0.13;;;20.90;70.60;;;;;;4952810;28;20044;-33
2022/10/25 05:29:32;;;;;;;0.10;0.10;;;20.90;70.80;;;;;;4955997;28;20039;-41
2022/10/25 05:31:58;;;;;;;0.20;0.15;;;20.90;70.40;;;;;;4954486;28;20490;-39
2022/10/25 05:34:24;;;;;;;0.20;0.20;;;20.90;70.50;;;;;;4950171;28;20050;-44
2022/10/25 05:36:50;;;;;;;0.30;0.20;;;20.90;70.40;;;;;;4954292;28;20043;-45
2022/10/25 05:39:16;;;;;;;0.50;0.20;;;20.90;70.30;;;;;;4952241;28;20066;-46
2022/10/25 05:41:41;;;;;;;0.20;0.20;;;20.90;70.50;;;;;;4951304;28;20059;-38
2022/10/25 05:44:07;;;;;;;0.20;0.10;;;20.90;70.20;;;;;;4953976;28;20042;-38
2022/10/25 05:46:33;;;;;;;0.40;0.20;;;20.90;70.10;;;;;;4952391;28;20486;-39
2022/10/25 05:48:58;;;;;;;0.85;0.30;;;20.90;70.50;;;;;;4955057;28;20070;-39
2022/10/25 05:51:28;;;;;;;1.35;0.30;;;20.90;70.40;;;;;;4953119;28;20036;-47
2022/10/25 05:53:55;;;;;;;0.17;0.17;;;20.90;70.50;;;;;;4953902;28;20055;-36
2022/10/25 05:56:22;;;;;;;0.10;0.10;;;20.90;70.50;;;;;;4948652;28;20068;-35
2022/10/25 05:58:47;;;;;;;0.45;0.25;;;20.90;70.30;;;;;;4948788;28;20137;-36
2022/10/25 06:01:14;;;;;;;0.15;0.15;;;20.90;70.30;;;;;;4952543;28;20506;-43
2022/10/25 06:03:40;;;;;;;0.40;0.30;;;20.90;70.70;;;;;;4953680;28;20429;-43
2022/10/25 06:06:07;;;;;;;0.15;0.10;;;20.90;71.00;;;;;;4953961;28;20046;-47
2022/10/25 06:08:33;;;;;;;0.10;0.10;;;20.80;70.90;;;;;;4955039;28;20469;-41
2022/10/25 06:11:11;;;;;;;0.10;0.10;;;20.90;70.50;;;;;;4957209;28;20047;-46
2022/10/25 06:13:37;;;;;;;0.20;0.20;;;20.80;70.50;;;;;;4954455;28;20559;-41
2022/10/25 06:16:04;;;;;;;0.10;0.10;;;20.90;70.90;;;;;;4610129;28;10000422;-44
2022/10/25 06:18:29;;;;;;;0.20;0.10;;;20.90;70.30;;;;;;4955252;28;20058;-42
2022/10/25 06:20:55;;;;;;;0.30;0.10;;;20.90;70.70;;;;;;4950905;28;20046;-48
2022/10/25 06:23:20;;;;;;;0.40;0.30;;;20.80;70.50;;;;;;4954598;28;20502;-41
2022/10/25 06:25:46;;;;;;;0.30;0.17;;;20.80;70.20;;;;;;4954879;28;20138;-44
2022/10/25 06:28:12;;;;;;;0.57;0.30;;;20.90;70.80;;;;;;4953096;28;20529;-37
2022/10/25 06:30:37;;;;;;;0.15;0.10;;;20.90;70.50;;;;;;4950560;28;20046;-37
2022/10/25 06:33:03;;;;;;;0.13;0.10;;;20.90;70.30;;;;;;4955097;28;20125;-38
2022/10/25 06:35:28;;;;;;;0.30;0.10;;;20.90;71.30;;;;;;4954097;28;20054;-41
2022/10/25 06:37:59;;;;;;;0.30;0.13;;;20.90;70.90;;;;;;4949697;28;20121;-42
2022/10/25 06:40:25;;;;;;;0.57;0.20;;;20.90;70.70;;;;;;4952046;28;20134;-40
2022/10/25 06:42:55;;;;;;;0.75;0.20;;;20.80;71.20;;;;;;4951495;28;20062;-43
2022/10/25 06:45:21;;;;;;;0.47;0.20;;;20.90;71.10;;;;;;4951892;28;20114;-45
2022/10/25 06:47:46;;;;;;;0.25;0.20;;;20.90;71.00;;;;;;4950857;28;20596;-46
2022/10/25 06:50:12;;;;;;;0.70;0.30;;;20.90;71.00;;;;;;4951591;28;20047;-44
2022/10/25 06:52:38;;;;;;;0.30;0.10;;;21.00;70.90;;;;;;4952603;28;20540;-44
2022/10/25 06:55:03;;;;;;;0.40;0.20;;;21.00;71.20;;;;;;4957624;28;20062;-39
2022/10/25 06:57:29;;;;;;;1.25;0.20;;;21.10;70.30;;;;;;4955165;28;20035;-39
2022/10/25 06:59:55;;;;;;;0.30;0.20;;;21.00;71.00;;;;;;4958733;28;20430;-45
2022/10/25 07:02:20;;;;;;;0.30;0.20;;;20.90;71.50;;;;;;4958712;28;20046;-45
2022/10/25 07:04:46;;;;;;;0.57;0.40;;;20.90;71.50;;;;;;4956624;28;20038;-49
2022/10/25 07:07:13;;;;;;;0.52;0.10;;;20.80;71.30;;;;;;4957740;28;20085;-54
2022/10/25 07:09:39;;;;;;;0.28;0.28;;;20.80;71.30;;;;;;4957308;28;20130;-53
2022/10/25 07:12:05;;;;;;;0.43;0.30;;;20.80;71.30;;;;;;4962797;28;20410;-35
2022/10/25 07:14:31;;;;;;;0.35;0.20;;;20.80;71.20;;;;;;4953872;28;20055;-23
2022/10/25 07:16:56;;;;;;;0.73;0.20;;;20.80;71.10;;;;;;4957659;28;20147;-38
2022/10/25 07:19:23;;;;;;;0.28;0.20;;;20.80;71.00;;;;;;4956039;28;20233;-37
2022/10/25 07:21:49;;;;;;;0.40;0.20;;;20.80;71.10;;;;;;4973602;28;20785;-32
2022/10/25 07:24:14;;;;;;;0.28;0.10;;;20.80;71.00;;;;;;4961783;28;20189;-37
2022/10/25 07:26:40;;;;;;;0.40;0.20;;;20.80;70.90;;;;;;4955951;28;20043;-33
2022/10/25 07:29:06;;;;;;;0.52;0.22;;;20.80;71.80;;;;;;4958400;28;20449;-33
2022/10/25 07:31:44;;;;;;;0.10;0.10;;;20.80;70.90;;;;;;4956030;28;20039;-36
2022/10/25 07:34:13;;;;;;;0.20;0.10;;;20.80;71.50;;;;;;4955882;28;20095;-34
2022/10/25 07:36:39;;;;;;;0.50;0.10;;;20.80;70.90;;;;;;4953538;28;20047;-33
2022/10/25 07:39:04;;;;;;;0.20;0.20;;;20.80;70.80;;;;;;4957807;28;20407;-35
2022/10/25 07:41:30;;;;;;;0.25;0.25;;;20.80;70.80;;;;;;4958292;28;20409;-31
2022/10/25 07:43:55;;;;;;;0.40;0.20;;;20.80;70.90;;;;;;4959334;28;20065;-34
2022/10/25 07:46:21;;;;;;;0.32;0.32;;;20.80;70.70;;;;;;4957278;28;20454;-31
2022/10/25 07:48:47;;;;;;;0.82;0.20;;;20.80;70.70;;;;;;4957612;28;20473;-39
2022/10/25 07:51:14;;;;;;;0.20;0.20;;;20.80;70.50;;;;;;4957421;28;20167;-35
2022/10/25 07:53:39;;;;;;;0.10;0.10;;;20.90;70.50;;;;;;4958879;28;20039;-35
2022/10/25 07:56:05;;;;;;;0.17;0.10;;;20.90;70.30;;;;;;4958520;28;20050;-33
2022/10/25 07:58:31;;;;;;;0.10;0.10;;;20.80;70.30;;;;;;4959828;28;20482;-32
2022/10/25 08:01:01;;;;;;;0.25;0.20;;;20.80;71.10;;;;;;4960076;28;20154;-33
2022/10/25 08:03:27;;;;;;;0.20;0.15;;;20.80;70.30;;;;;;4955469;28;20486;-38
2022/10/25 08:05:52;;;;;;;0.22;0.15;;;20.80;70.20;;;;;;4956827;28;20058;-34
2022/10/25 08:08:21;;;;;;;0.40;0.10;;;20.80;70.30;;;;;;4956981;28;20142;-38
2022/10/25 08:10:47;;;;;;;0.30;0.25;;;20.80;70.20;;;;;;4953734;28;20506;-33
2022/10/25 08:13:12;;;;;;;0.30;0.20;;;20.80;70.20;;;;;;4955868;28;20098;-32
2022/10/25 08:15:39;;;;;;;0.10;0.10;;;20.80;70.20;;;;;;4954884;28;20395;-34
2022/10/25 08:18:06;;;;;;;0.57;0.30;;;20.90;70.00;;;;;;4959534;28;20039;-33
2022/10/25 08:20:31;;;;;;;0.32;0.20;;;20.90;70.00;;;;;;4954901;28;20462;-30
2022/10/25 08:22:58;;;;;;;0.20;0.10;;;20.90;70.10;;;;;;4957807;28;20055;-33
2022/10/25 08:25:24;;;;;;;0.17;0.10;;;20.90;69.70;;;;;;4953410;28;20050;-32
2022/10/25 08:27:49;;;;;;;0.28;0.20;;;20.90;70.00;;;;;;4956818;28;20462;-31
2022/10/25 08:30:15;;;;;;;0.70;0.20;;;20.80;69.90;;;;;;4953678;28;20676;-31
2022/10/25 08:32:41;;;;;;;0.10;0.10;;;20.80;69.90;;;;;;4956675;28;20054;-32
2022/10/25 08:35:07;;;;;;;0.20;0.20;;;20.80;70.00;;;;;;4954465;28;20051;-38
2022/10/25 08:37:32;;;;;;;0.00;0.00;;;20.90;69.90;;;;;;4954157;28;20071;-34
2022/10/25 08:39:58;;;;;;;0.35;0.20;;;20.90;69.90;;;;;;4953747;28;20518;-35
2022/10/25 08:42:35;;;;;;;0.55;0.30;;;20.90;69.80;;;;;;4959376;28;20055;-38
2022/10/25 08:45:12;;;;;;;0.20;0.10;;;20.90;69.90;;;;;;4956193;28;20126;-34
2022/10/25 08:47:40;;;;;;;0.28;0.20;;;20.90;70.50;;;;;;4941034;28;20058;-32
2022/10/25 08:50:27;;;;;;;0.50;0.20;;;21.00;69.90;;;;;;4957465;28;20043;-33
2022/10/25 08:53:00;;;;;;;0.15;0.15;;;20.90;69.70;;;;;;4956032;28;20113;-37
2022/10/25 08:55:31;;;;;;;0.20;0.20;;;21.00;69.70;;;;;;4951615;28;20042;-30
2022/10/25 08:57:57;;;;;;;0.20;0.20;;;21.00;69.50;;;;;;4972299;28;20059;-33
2022/10/25 09:00:23;;;;;;;0.10;0.10;;;21.00;69.70;;;;;;4955207;28;20053;-32
2022/10/25 09:02:52;;;;;;;0.30;0.17;;;21.00;69.50;;;;;;4954306;28;20043;-34
2022/10/25 09:05:36;;;;;;;0.15;0.15;;;21.00;69.70;;;;;;4954566;28;20047;-34
2022/10/25 09:08:13;;;;;;;0.22;0.10;;;21.00;69.50;;;;;;4950919;28;20058;-38
2022/10/25 09:11:21;;;;;;;0.10;0.10;;;21.00;69.60;;;;;;4949770;28;20047;-36
2022/10/25 09:14:05;;;;;;;0.10;0.10;;;21.00;69.70;;;;;;4954080;28;20043;-40
2022/10/25 09:16:34;;;;;;;;;;;21.00;69.80;;;;;;4955017;28;20098;-47
2022/10/25 09:18:59;;;;;;;0.10;0.10;;;20.90;69.60;;;;;;4984231;28;20337;-38
2022/10/25 09:21:34;;;;;;;0.30;0.10;;;21.00;69.90;;;;;;4970997;28;20066;-46
2022/10/25 09:24:02;;;;;;;0.47;0.40;;;21.00;69.90;;;;;;4954300;28;20062;-34
2022/10/25 09:26:51;;;;;;;0.17;0.15;;;21.00;69.80;;;;;;4952498;28;20051;-41
2022/10/25 09:29:16;;;;;;;0.17;0.10;;;21.00;70.00;;;;;;4963404;28;20043;-41
2022/10/25 09:31:44;;;;;;;0.28;0.20;;;21.00;69.90;;;;;;4955132;28;20073;-37
2022/10/25 09:34:10;;;;;;;0.15;0.13;;;21.00;69.80;;;;;;4987847;28;20050;-34
2022/10/25 09:36:40;;;;;;;0.10;0.10;;;21.00;70.20;;;;;;4937871;28;20414;-38
2022/10/25 09:39:20;;;;;;;0.25;0.20;;;21.00;70.30;;;;;;4989896;28;20058;-33
2022/10/25 09:41:48;;;;;;;0.10;0.10;;;21.00;70.20;;;;;;4957790;28;20133;-44
2022/10/25 09:44:34;;;;;;;0.20;0.20;;;20.90;70.40;;;;;;4971653;28;20053;-44
2022/10/25 09:47:07;;;;;;;0.17;0.17;;;20.90;70.40;;;;;;4953329;28;20054;-38
2022/10/25 09:49:40;;;;;;;0.68;0.10;;;20.90;70.60;;;;;;4955869;28;20098;-43
2022/10/25 09:52:12;;;;;;;0.10;0.10;;;20.90;70.50;;;;;;4957215;28;20510;-48
2022/10/25 09:54:43;;;;;;;0.10;0.10;;;21.00;70.40;;;;;;4956265;28;20727;-46
2022/10/25 09:57:08;;;;;;;1.63;0.20;;;21.00;70.20;;;;;;4932579;28;20074;-46
2022/10/25 09:59:34;;;;;;;0.10;0.00;;;21.00;70.10;;;;;;4959541;28;20502;-48
2022/10/25 10:01:59;;;;;;;0.10;0.10;;;21.10;70.00;;;;;;4958213;28;20022;-53
2022/10/25 10:04:31;;;;;;;0.73;0.10;;;21.10;70.00;;;;;;4960594;28;20528;-57
2022/10/25 10:06:58;;;;;;;0.20;0.10;;;21.10;70.00;;;;;;4957273;28;20066;-54
2022/10/25 10:09:23;;;;;;;0.20;0.10;;;21.10;69.90;;;;;;4974558;28;20086;-30
2022/10/25 10:11:49;;;;;;;0.13;0.10;;;21.10;69.80;;;;;;4977253;28;20046;-39
2022/10/25 10:14:29;;;;;;;0.40;0.20;;;21.20;69.70;;;;;;4974088;28;20031;-35
2022/10/25 10:16:55;;;;;;;0.10;0.10;;;21.10;69.50;;;;;;4992052;28;20383;-37
2022/10/25 10:19:22;;;;;;;0.10;0.10;;;21.20;69.60;;;;;;4957850;28;20078;-41
2022/10/25 10:21:49;;;;;;;0.15;0.15;;;21.20;69.40;;;;;;4964055;28;20031;-34
2022/10/25 10:24:20;;;;;;;0.30;0.30;;;21.20;69.40;;;;;;4955746;28;20041;-34
2022/10/25 10:26:48;;;;;;;0.10;0.10;;;21.20;69.50;;;;;;4976125;28;20042;-38
2022/10/25 10:29:23;;;;;;;0.10;0.10;;;21.20;69.50;;;;;;4957883;28;20027;-31
2022/10/25 10:31:50;;;;;;;0.10;0.10;;;21.20;69.50;;;;;;4971831;28;20027;-35
2022/10/25 10:34:21;;;;;;;0.20;0.10;;;21.20;69.60;;;;;;4976528;28;20090;-33
2022/10/25 10:36:49;;;;;;;0.20;0.20;;;21.20;69.60;;;;;;4955636;28;20035;-33
2022/10/25 10:39:20;;;;;;;0.10;0.10;;;21.20;69.70;;;;;;4957089;28;20039;-32
2022/10/25 10:42:02;;;;;;;0.10;0.10;;;21.20;69.60;;;;;;4957550;28;20054;-31
2022/10/25 10:44:34;;;;;;;1.30;0.30;;;21.20;69.70;;;;;;4962204;28;20039;-33
2022/10/25 10:47:01;;;;;;;0.55;0.20;;;21.20;69.70;;;;;;4957243;28;20066;-34
2022/10/25 10:49:34;;;;;;;0.15;0.10;;;21.20;69.70;;;;;;4957412;28;20443;-32
2022/10/25 10:52:01;;;;;;;0.20;0.20;;;21.20;69.60;;;;;;4959325;28;20046;-56
2022/10/25 10:54:29;;;;;;;0.05;0.05;;;21.20;69.60;;;;;;4957568;28;20037;-55
2022/10/25 10:56:58;;;;;;;0.30;0.30;;;21.20;69.60;;;;;;4962909;28;20061;-52
2022/10/25 10:59:29;;;;;;;0.20;0.10;;;21.20;69.60;;;;;;4961292;28;20043;-46
2022/10/25 11:01:55;;;;;;;0.40;0.10;;;21.20;69.60;;;;;;4958462;28;20026;-38
2022/10/25 11:04:21;;;;;;;0.13;0.13;;;21.20;69.50;;;;;;4958596;28;20043;-54
2022/10/25 11:06:46;;;;;;;0.30;0.20;;;21.20;69.40;;;;;;4958231;28;20063;-43
2022/10/25 11:09:16;;;;;;;0.08;0.08;;;21.20;69.40;;;;;;4961385;28;20023;-35
2022/10/25 11:11:42;;;;;;;0.10;0.10;;;21.20;69.40;;;;;;4957844;28;20458;-46
2022/10/25 11:14:12;;;;;;;0.20;0.20;;;21.20;69.50;;;;;;4953328;28;20035;-53
2022/10/25 11:17:02;;;;;;;0.20;0.20;;;21.20;69.50;;;;;;4957490;28;20031;-52
2022/10/25 11:19:38;;;;;;;0.10;0.10;;;21.20;69.50;;;;;;4958557;28;20031;-48
2022/10/25 11:22:28;;;;;;;0.25;0.17;;;21.20;69.40;;;;;;4956600;28;20034;-51
2022/10/25 11:25:30;;;;;;;0.10;0.10;;;21.20;69.40;;;;;;4951474;28;20040;-52
2022/10/25 11:28:00;;;;;;;0.10;0.10;;;21.20;69.30;;;;;;4959114;28;20422;-38
2022/10/25 11:30:31;;;;;;;0.20;0.20;;;21.30;69.50;;;;;;4957249;28;20073;-34
2022/10/25 11:33:17;;;;;;;0.15;0.15;;;21.30;69.30;;;;;;4972595;28;20066;-33
2022/10/25 11:36:07;;;;;;;0.20;0.20;;;21.30;69.20;;;;;;4971406;28;20387;-35
2022/10/25 11:38:51;;;;;;;0.28;0.20;;;21.30;69.50;;;;;;4955889;28;20555;-35
2022/10/25 11:41:38;;;;;;;0.30;0.30;;;21.30;69.40;;;;;;4957734;28;20023;-35
2022/10/25 11:44:22;;;;;;;0.20;0.17;;;21.30;69.40;;;;;;4957379;28;20507;-31
2022/10/25 11:46:51;;;;;;;0.60;0.20;;;21.30;69.40;;;;;;4958041;28;20035;-31
2022/10/25 11:49:19;;;;;;;0.28;0.28;;;21.30;69.70;;;;;;4960241;28;20088;-32
2022/10/25 11:52:01;;;;;;;1.10;0.40;;;21.30;69.70;;;;;;4959502;28;20030;-35
2022/10/25 11:54:30;;;;;;;0.25;0.25;;;21.30;70.00;;;;;;4975415;28;20031;-31
2022/10/25 11:57:01;;;;;;;0.40;0.30;;;21.30;69.80;;;;;;4951369;28;20026;-33
2022/10/25 11:59:49;;;;;;;0.30;0.20;;;21.30;70.00;;;;;;4956783;28;20046;-34
2022/10/25 12:02:52;;;;;;;0.38;0.30;;;21.30;70.10;;;;;;4974105;28;20122;-34
2022/10/25 12:05:24;;;;;;;0.70;0.50;;;21.30;70.40;;;;;;4945548;28;20039;-33
2022/10/25 12:08:02;;;;;;;0.70;0.52;;;21.30;70.10;;;;;;4972891;28;20038;-34
2022/10/25 12:10:33;;;;;;;1.30;0.40;;;21.40;69.90;;;;;;4960035;28;20159;-32
2022/10/25 12:13:14;;;;;;;0.40;0.35;;;21.40;70.10;;;;;;4955931;28;20486;-33
2022/10/25 12:15:45;;;;;;;0.98;0.60;;;21.30;70.20;;;;;;4955196;28;20508;-32
2022/10/25 12:18:14;;;;;;;0.57;0.35;;;21.30;70.00;;;;;;4975645;28;20505;-39
2022/10/25 12:20:39;;;;;;;0.40;0.40;;;21.30;70.20;;;;;;4958158;28;20030;-33
2022/10/25 12:23:09;;;;;;;0.45;0.35;;;21.30;70.20;;;;;;4956924;28;20552;-33
2022/10/25 12:25:38;;;;;;;0.90;0.60;;;21.30;70.30;;;;;;4979164;28;20063;-31
2022/10/25 12:28:24;;;;;;;0.90;0.68;;;21.30;70.30;;;;;;4940192;28;20045;-33
2022/10/25 12:30:51;;;;;;;0.63;0.60;;;21.30;70.40;;;;;;4958952;28;20085;-33
2022/10/25 12:33:20;;;;;;;0.68;0.40;;;21.30;71.30;;;;;;4956472;28;20471;-35
2022/10/25 12:35:50;;;;;;;0.45;0.45;;;21.30;70.50;;;;;;4957033;28;20499;-41
2022/10/25 12:38:41;;;;;;;0.52;0.43;;;21.30;70.40;;;;;;4960126;28;20125;-36
2022/10/25 12:41:28;;;;;;;0.40;0.40;;;21.30;70.50;;;;;;4955798;28;20042;-49
2022/10/25 12:44:18;;;;;;;0.70;0.45;;;21.30;70.40;;;;;;4955065;28;21633;-38
2022/10/25 12:47:04;;;;;;;0.75;0.57;;;21.30;70.40;;;;;;4955818;28;20093;-35
2022/10/25 12:49:56;;;;;;;0.60;0.60;;;21.30;70.30;;;;;;4957212;28;20023;-36
2022/10/25 12:52:37;;;;;;;0.98;0.50;;;21.30;70.40;;;;;;4957942;28;20046;-36
2022/10/25 12:55:24;;;;;;;1.67;0.50;;;21.40;70.20;;;;;;4954898;28;20402;-35
2022/10/25 12:57:55;;;;;;;0.80;0.55;;;21.40;70.30;;;;;;4954062;28;20037;-35
2022/10/25 13:00:22;;;;;;;0.65;0.60;;;21.30;70.30;;;;;;4957989;28;20061;-38
2022/10/25 13:03:09;;;;;;;0.90;0.75;;;21.30;70.30;;;;;;4955726;28;20034;-38